Avon, New York
Current Conditions -  °F | °C
As of 5:54 AM on Thursday 27 Nov 2014 (Local Time) from KROC Reporting Station
Light Snow Light Snow  
Wind Chill: 21°   Ceiling: 2800
Heat Index: 28°   Visibility: 2mi
Dew Point: 26°   Wind: 7mph
Humidity: 92%   Direction: 300°WNW
Pressure: 30.04"   Gusts: NA
Location:  42.91°N, 77.75°W
Report Text: KROC 271054Z 30006KT 2SM -SN BR BKN028 OVC037 M02/M03 A3004 RMK AO2 SLP181 P0000 T10221033
Loading
Personal Weather Stations






























Interactive Weather Map New forecast layout! Learn more

10-Day Weather Forecast

Advertisements
Track Severe Weather on mobile